sensor_id;sensor_type;location;lat;lon;timestamp;P1;durP1;ratioP1;P2;durP2;ratioP2
19664;SDS011;9980;51.020;7.772;2023-03-20T00:02:20;20.23;;;13.17;;
19664;SDS011;9980;51.020;7.772;2023-03-20T00:04:49;16.57;;;13.57;;
19664;SDS011;9980;51.020;7.772;2023-03-20T00:07:17;15.97;;;13.03;;
19664;SDS011;9980;51.020;7.772;2023-03-20T00:09:43;13.70;;;11.97;;
19664;SDS011;9980;51.020;7.772;2023-03-20T00:12:14;16.30;;;12.73;;
19664;SDS011;9980;51.020;7.772;2023-03-20T00:14:51;16.73;;;13.50;;
19664;SDS011;9980;51.020;7.772;2023-03-20T00:17:19;15.90;;;12.10;;
19664;SDS011;9980;51.020;7.772;2023-03-20T00:19:46;21.13;;;14.00;;
19664;SDS011;9980;51.020;7.772;2023-03-20T00:22:13;15.63;;;13.23;;
19664;SDS011;9980;51.020;7.772;2023-03-20T00:24:40;17.80;;;13.77;;
19664;SDS011;9980;51.020;7.772;2023-03-20T00:27:09;16.53;;;14.23;;
19664;SDS011;9980;51.020;7.772;2023-03-20T00:29:40;19.17;;;15.20;;
19664;SDS011;9980;51.020;7.772;2023-03-20T00:32:10;19.13;;;14.83;;
19664;SDS011;9980;51.020;7.772;2023-03-20T00:34:38;15.73;;;13.17;;
19664;SDS011;9980;51.020;7.772;2023-03-20T00:37:05;20.07;;;15.20;;
19664;SDS011;9980;51.020;7.772;2023-03-20T00:39:32;17.10;;;14.10;;
19664;SDS011;9980;51.020;7.772;2023-03-20T00:42:01;22.93;;;16.03;;
19664;SDS011;9980;51.020;7.772;2023-03-20T00:44:35;21.13;;;15.40;;
19664;SDS011;9980;51.020;7.772;2023-03-20T00:47:16;22.53;;;18.07;;
19664;SDS011;9980;51.020;7.772;2023-03-20T00:49:47;26.60;;;19.07;;
19664;SDS011;9980;51.020;7.772;2023-03-20T00:52:17;24.43;;;18.47;;
19664;SDS011;9980;51.020;7.772;2023-03-20T00:54:46;26.80;;;19.47;;
19664;SDS011;9980;51.020;7.772;2023-03-20T00:57:36;25.10;;;19.07;;
19664;SDS011;9980;51.020;7.772;2023-03-20T01:03:01;30.47;;;19.60;;
19664;SDS011;9980;51.020;7.772;2023-03-20T01:05:46;30.80;;;21.27;;
19664;SDS011;9980;51.020;7.772;2023-03-20T01:08:17;31.33;;;19.87;;
19664;SDS011;9980;51.020;7.772;2023-03-20T01:10:54;30.63;;;20.83;;
19664;SDS011;9980;51.020;7.772;2023-03-20T01:13:24;36.33;;;24.07;;
19664;SDS011;9980;51.020;7.772;2023-03-20T01:15:54;37.50;;;24.93;;
19664;SDS011;9980;51.020;7.772;2023-03-20T01:18:24;38.27;;;26.20;;
19664;SDS011;9980;51.020;7.772;2023-03-20T01:20:52;49.17;;;28.17;;
19664;SDS011;9980;51.020;7.772;2023-03-20T01:23:19;52.20;;;32.37;;
19664;SDS011;9980;51.020;7.772;2023-03-20T01:25:48;53.87;;;32.87;;
19664;SDS011;9980;51.020;7.772;2023-03-20T01:28:22;53.63;;;32.50;;
19664;SDS011;9980;51.020;7.772;2023-03-20T01:30:50;52.93;;;32.40;;
19664;SDS011;9980;51.020;7.772;2023-03-20T01:33:18;58.03;;;33.83;;
19664;SDS011;9980;51.020;7.772;2023-03-20T01:35:51;56.10;;;32.77;;
19664;SDS011;9980;51.020;7.772;2023-03-20T01:38:19;47.93;;;29.30;;
19664;SDS011;9980;51.020;7.772;2023-03-20T01:43:38;38.93;;;24.37;;
19664;SDS011;9980;51.020;7.772;2023-03-20T01:51:19;29.67;;;20.00;;
19664;SDS011;9980;51.020;7.772;2023-03-20T01:53:53;33.10;;;19.40;;
19664;SDS011;9980;51.020;7.772;2023-03-20T01:56:49;26.43;;;17.50;;
19664;SDS011;9980;51.020;7.772;2023-03-20T02:02:40;22.87;;;15.73;;
19664;SDS011;9980;51.020;7.772;2023-03-20T02:05:18;22.60;;;16.30;;
19664;SDS011;9980;51.020;7.772;2023-03-20T02:07:50;21.57;;;16.13;;
19664;SDS011;9980;51.020;7.772;2023-03-20T02:10:45;21.27;;;15.07;;
19664;SDS011;9980;51.020;7.772;2023-03-20T02:13:26;24.03;;;14.87;;
19664;SDS011;9980;51.020;7.772;2023-03-20T02:19:19;19.10;;;14.37;;
19664;SDS011;9980;51.020;7.772;2023-03-20T02:22:23;22.73;;;14.03;;
19664;SDS011;9980;51.020;7.772;2023-03-20T02:31:30;21.70;;;12.70;;
19664;SDS011;9980;51.020;7.772;2023-03-20T02:37:21;20.60;;;13.37;;
19664;SDS011;9980;51.020;7.772;2023-03-20T02:46:02;17.47;;;12.83;;
19664;SDS011;9980;51.020;7.772;2023-03-20T02:51:26;19.50;;;13.77;;
19664;SDS011;9980;51.020;7.772;2023-03-20T02:54:23;15.70;;;11.60;;
19664;SDS011;9980;51.020;7.772;2023-03-20T02:57:14;17.00;;;12.07;;
19664;SDS011;9980;51.020;7.772;2023-03-20T03:00:10;19.93;;;14.53;;
19664;SDS011;9980;51.020;7.772;2023-03-20T03:03:05;16.77;;;12.33;;
19664;SDS011;9980;51.020;7.772;2023-03-20T03:05:54;19.50;;;13.13;;
19664;SDS011;9980;51.020;7.772;2023-03-20T03:08:27;19.97;;;14.40;;
19664;SDS011;9980;51.020;7.772;2023-03-20T03:11:03;18.83;;;13.53;;
19664;SDS011;9980;51.020;7.772;2023-03-20T03:13:35;20.40;;;13.83;;
19664;SDS011;9980;51.020;7.772;2023-03-20T03:16:23;18.30;;;12.90;;
19664;SDS011;9980;51.020;7.772;2023-03-20T03:19:02;22.30;;;13.63;;
19664;SDS011;9980;51.020;7.772;2023-03-20T03:21:35;19.80;;;14.43;;
19664;SDS011;9980;51.020;7.772;2023-03-20T03:24:05;20.63;;;13.77;;
19664;SDS011;9980;51.020;7.772;2023-03-20T03:27:07;18.70;;;13.40;;
19664;SDS011;9980;51.020;7.772;2023-03-20T03:35:48;21.37;;;14.57;;
19664;SDS011;9980;51.020;7.772;2023-03-20T03:41:17;23.67;;;14.50;;
19664;SDS011;9980;51.020;7.772;2023-03-20T03:46:57;24.63;;;15.57;;
19664;SDS011;9980;51.020;7.772;2023-03-20T03:49:32;20.33;;;14.67;;
19664;SDS011;9980;51.020;7.772;2023-03-20T03:52:10;26.53;;;15.83;;
19664;SDS011;9980;51.020;7.772;2023-03-20T03:54:44;23.60;;;15.63;;
19664;SDS011;9980;51.020;7.772;2023-03-20T03:57:26;22.67;;;15.60;;
19664;SDS011;9980;51.020;7.772;2023-03-20T04:00:16;21.67;;;15.77;;
19664;SDS011;9980;51.020;7.772;2023-03-20T04:02:48;22.70;;;14.83;;
19664;SDS011;9980;51.020;7.772;2023-03-20T04:05:24;20.87;;;15.20;;
19664;SDS011;9980;51.020;7.772;2023-03-20T04:07:57;20.13;;;14.47;;
19664;SDS011;9980;51.020;7.772;2023-03-20T04:10:26;21.03;;;14.23;;
19664;SDS011;9980;51.020;7.772;2023-03-20T04:12:53;21.23;;;15.40;;
19664;SDS011;9980;51.020;7.772;2023-03-20T04:15:20;23.23;;;14.43;;
19664;SDS011;9980;51.020;7.772;2023-03-20T04:17:47;21.77;;;14.57;;
19664;SDS011;9980;51.020;7.772;2023-03-20T04:20:15;19.20;;;13.43;;
19664;SDS011;9980;51.020;7.772;2023-03-20T04:22:44;19.07;;;13.90;;
19664;SDS011;9980;51.020;7.772;2023-03-20T04:25:17;16.33;;;12.40;;
19664;SDS011;9980;51.020;7.772;2023-03-20T04:27:49;16.30;;;11.73;;
19664;SDS011;9980;51.020;7.772;2023-03-20T04:30:28;19.83;;;13.10;;
19664;SDS011;9980;51.020;7.772;2023-03-20T04:33:13;18.43;;;13.77;;
19664;SDS011;9980;51.020;7.772;2023-03-20T04:36:01;24.67;;;14.57;;
19664;SDS011;9980;51.020;7.772;2023-03-20T04:38:29;18.70;;;13.43;;
19664;SDS011;9980;51.020;7.772;2023-03-20T04:40:56;18.10;;;13.23;;
19664;SDS011;9980;51.020;7.772;2023-03-20T04:43:23;15.83;;;12.87;;
19664;SDS011;9980;51.020;7.772;2023-03-20T04:45:50;18.97;;;13.90;;
19664;SDS011;9980;51.020;7.772;2023-03-20T04:48:17;19.17;;;11.77;;
19664;SDS011;9980;51.020;7.772;2023-03-20T04:50:44;20.37;;;14.10;;
19664;SDS011;9980;51.020;7.772;2023-03-20T04:53:18;19.03;;;13.63;;
19664;SDS011;9980;51.020;7.772;2023-03-20T04:55:49;18.83;;;12.93;;
19664;SDS011;9980;51.020;7.772;2023-03-20T04:58:16;21.10;;;14.00;;
19664;SDS011;9980;51.020;7.772;2023-03-20T05:00:43;20.77;;;14.47;;
19664;SDS011;9980;51.020;7.772;2023-03-20T05:03:11;20.40;;;13.73;;
19664;SDS011;9980;51.020;7.772;2023-03-20T05:05:38;24.77;;;14.70;;
19664;SDS011;9980;51.020;7.772;2023-03-20T05:08:06;22.27;;;14.47;;
19664;SDS011;9980;51.020;7.772;2023-03-20T05:10:35;20.97;;;13.87;;
19664;SDS011;9980;51.020;7.772;2023-03-20T05:13:22;23.07;;;16.73;;
19664;SDS011;9980;51.020;7.772;2023-03-20T05:16:27;22.53;;;14.80;;
19664;SDS011;9980;51.020;7.772;2023-03-20T05:18:59;22.73;;;15.40;;
19664;SDS011;9980;51.020;7.772;2023-03-20T05:21:32;21.43;;;14.80;;
19664;SDS011;9980;51.020;7.772;2023-03-20T05:24:25;20.87;;;13.93;;
19664;SDS011;9980;51.020;7.772;2023-03-20T05:27:14;25.53;;;15.20;;
19664;SDS011;9980;51.020;7.772;2023-03-20T05:29:59;24.70;;;14.67;;
19664;SDS011;9980;51.020;7.772;2023-03-20T05:32:42;17.23;;;12.30;;
19664;SDS011;9980;51.020;7.772;2023-03-20T05:35:27;20.87;;;14.60;;
19664;SDS011;9980;51.020;7.772;2023-03-20T05:38:06;21.83;;;14.47;;
19664;SDS011;9980;51.020;7.772;2023-03-20T05:40:42;24.30;;;16.40;;
19664;SDS011;9980;51.020;7.772;2023-03-20T05:43:31;25.80;;;16.00;;
19664;SDS011;9980;51.020;7.772;2023-03-20T05:46:33;21.67;;;14.27;;
19664;SDS011;9980;51.020;7.772;2023-03-20T05:49:19;23.20;;;15.23;;
19664;SDS011;9980;51.020;7.772;2023-03-20T05:52:06;24.17;;;15.70;;
19664;SDS011;9980;51.020;7.772;2023-03-20T05:54:41;20.97;;;14.07;;
19664;SDS011;9980;51.020;7.772;2023-03-20T05:57:21;22.00;;;15.33;;
19664;SDS011;9980;51.020;7.772;2023-03-20T05:59:51;25.57;;;15.93;;
19664;SDS011;9980;51.020;7.772;2023-03-20T06:02:36;27.43;;;17.47;;
19664;SDS011;9980;51.020;7.772;2023-03-20T06:05:22;24.17;;;17.43;;
19664;SDS011;9980;51.020;7.772;2023-03-20T06:07:50;30.97;;;19.03;;
19664;SDS011;9980;51.020;7.772;2023-03-20T06:10:18;22.23;;;15.57;;
19664;SDS011;9980;51.020;7.772;2023-03-20T06:12:47;24.10;;;16.00;;
19664;SDS011;9980;51.020;7.772;2023-03-20T06:15:15;20.17;;;12.63;;
19664;SDS011;9980;51.020;7.772;2023-03-20T06:17:48;24.77;;;16.30;;
19664;SDS011;9980;51.020;7.772;2023-03-20T06:20:16;22.77;;;15.63;;
19664;SDS011;9980;51.020;7.772;2023-03-20T06:22:43;22.40;;;14.73;;
19664;SDS011;9980;51.020;7.772;2023-03-20T06:25:14;25.57;;;17.40;;
19664;SDS011;9980;51.020;7.772;2023-03-20T06:27:42;26.27;;;17.20;;
19664;SDS011;9980;51.020;7.772;2023-03-20T06:30:12;24.73;;;16.07;;
19664;SDS011;9980;51.020;7.772;2023-03-20T06:32:41;27.23;;;17.47;;
19664;SDS011;9980;51.020;7.772;2023-03-20T06:35:10;24.73;;;16.47;;
19664;SDS011;9980;51.020;7.772;2023-03-20T06:37:42;24.40;;;16.93;;
19664;SDS011;9980;51.020;7.772;2023-03-20T06:40:14;24.90;;;17.13;;
19664;SDS011;9980;51.020;7.772;2023-03-20T06:42:41;20.33;;;14.60;;
19664;SDS011;9980;51.020;7.772;2023-03-20T06:45:08;25.80;;;16.30;;
19664;SDS011;9980;51.020;7.772;2023-03-20T06:47:55;25.53;;;16.40;;
19664;SDS011;9980;51.020;7.772;2023-03-20T06:50:22;25.83;;;17.20;;
19664;SDS011;9980;51.020;7.772;2023-03-20T06:52:49;22.83;;;16.40;;
19664;SDS011;9980;51.020;7.772;2023-03-20T06:55:40;19.90;;;14.47;;
19664;SDS011;9980;51.020;7.772;2023-03-20T06:58:16;25.07;;;16.43;;
19664;SDS011;9980;51.020;7.772;2023-03-20T07:00:47;25.53;;;16.93;;
19664;SDS011;9980;51.020;7.772;2023-03-20T07:03:14;22.83;;;15.77;;
19664;SDS011;9980;51.020;7.772;2023-03-20T07:05:44;22.57;;;15.70;;
19664;SDS011;9980;51.020;7.772;2023-03-20T07:08:11;22.87;;;16.17;;
19664;SDS011;9980;51.020;7.772;2023-03-20T07:10:38;21.10;;;15.43;;
19664;SDS011;9980;51.020;7.772;2023-03-20T07:13:05;18.80;;;14.17;;
19664;SDS011;9980;51.020;7.772;2023-03-20T07:15:36;22.97;;;15.20;;
19664;SDS011;9980;51.020;7.772;2023-03-20T07:18:05;23.33;;;13.57;;
19664;SDS011;9980;51.020;7.772;2023-03-20T07:20:32;19.57;;;13.10;;
19664;SDS011;9980;51.020;7.772;2023-03-20T07:22:59;17.70;;;13.20;;
19664;SDS011;9980;51.020;7.772;2023-03-20T07:25:30;18.10;;;12.70;;
19664;SDS011;9980;51.020;7.772;2023-03-20T07:28:10;17.20;;;12.67;;
19664;SDS011;9980;51.020;7.772;2023-03-20T07:30:40;18.53;;;12.23;;
19664;SDS011;9980;51.020;7.772;2023-03-20T07:33:07;17.00;;;12.77;;
19664;SDS011;9980;51.020;7.772;2023-03-20T07:35:34;18.80;;;12.80;;
19664;SDS011;9980;51.020;7.772;2023-03-20T07:38:02;17.20;;;12.03;;
19664;SDS011;9980;51.020;7.772;2023-03-20T07:40:30;14.87;;;11.27;;
19664;SDS011;9980;51.020;7.772;2023-03-20T07:43:03;16.83;;;12.43;;
19664;SDS011;9980;51.020;7.772;2023-03-20T07:45:48;16.10;;;12.40;;
19664;SDS011;9980;51.020;7.772;2023-03-20T07:48:17;16.73;;;12.73;;
19664;SDS011;9980;51.020;7.772;2023-03-20T07:50:44;17.93;;;11.97;;
19664;SDS011;9980;51.020;7.772;2023-03-20T07:53:11;16.17;;;12.00;;
19664;SDS011;9980;51.020;7.772;2023-03-20T07:55:38;19.23;;;11.53;;
19664;SDS011;9980;51.020;7.772;2023-03-20T07:58:08;12.30;;;10.27;;
19664;SDS011;9980;51.020;7.772;2023-03-20T08:00:35;11.83;;;9.77;;
19664;SDS011;9980;51.020;7.772;2023-03-20T08:03:02;15.10;;;8.90;;
19664;SDS011;9980;51.020;7.772;2023-03-20T08:05:30;14.93;;;9.43;;
19664;SDS011;9980;51.020;7.772;2023-03-20T08:07:58;13.00;;;8.83;;
19664;SDS011;9980;51.020;7.772;2023-03-20T08:10:25;9.40;;;8.00;;
19664;SDS011;9980;51.020;7.772;2023-03-20T08:12:53;15.10;;;9.33;;
19664;SDS011;9980;51.020;7.772;2023-03-20T08:15:20;9.50;;;7.53;;
19664;SDS011;9980;51.020;7.772;2023-03-20T08:17:47;14.13;;;8.63;;
19664;SDS011;9980;51.020;7.772;2023-03-20T08:20:14;9.20;;;7.90;;
19664;SDS011;9980;51.020;7.772;2023-03-20T08:22:45;9.23;;;7.90;;
19664;SDS011;9980;51.020;7.772;2023-03-20T08:25:15;9.93;;;7.67;;
19664;SDS011;9980;51.020;7.772;2023-03-20T08:27:42;10.73;;;8.00;;
19664;SDS011;9980;51.020;7.772;2023-03-20T08:30:09;13.10;;;8.37;;
19664;SDS011;9980;51.020;7.772;2023-03-20T08:32:38;8.73;;;7.37;;
19664;SDS011;9980;51.020;7.772;2023-03-20T08:35:05;8.77;;;7.63;;
19664;SDS011;9980;51.020;7.772;2023-03-20T08:37:47;10.70;;;7.70;;
19664;SDS011;9980;51.020;7.772;2023-03-20T08:40:14;8.33;;;6.93;;
19664;SDS011;9980;51.020;7.772;2023-03-20T08:42:41;9.87;;;8.03;;
19664;SDS011;9980;51.020;7.772;2023-03-20T08:45:08;7.80;;;6.97;;
19664;SDS011;9980;51.020;7.772;2023-03-20T08:47:36;9.97;;;7.20;;
19664;SDS011;9980;51.020;7.772;2023-03-20T08:50:06;9.33;;;6.77;;
19664;SDS011;9980;51.020;7.772;2023-03-20T08:52:34;8.27;;;7.17;;
19664;SDS011;9980;51.020;7.772;2023-03-20T08:55:01;9.80;;;7.90;;
19664;SDS011;9980;51.020;7.772;2023-03-20T08:57:28;7.30;;;6.47;;
19664;SDS011;9980;51.020;7.772;2023-03-20T08:59:56;8.80;;;7.47;;
19664;SDS011;9980;51.020;7.772;2023-03-20T09:02:23;9.37;;;7.43;;
19664;SDS011;9980;51.020;7.772;2023-03-20T09:04:50;9.97;;;7.53;;
19664;SDS011;9980;51.020;7.772;2023-03-20T09:07:16;9.07;;;7.20;;
19664;SDS011;9980;51.020;7.772;2023-03-20T09:09:43;10.40;;;7.53;;
19664;SDS011;9980;51.020;7.772;2023-03-20T09:12:10;9.20;;;7.83;;
19664;SDS011;9980;51.020;7.772;2023-03-20T09:14:37;11.87;;;8.13;;
19664;SDS011;9980;51.020;7.772;2023-03-20T09:17:04;10.30;;;7.67;;
19664;SDS011;9980;51.020;7.772;2023-03-20T09:19:31;9.20;;;7.57;;
19664;SDS011;9980;51.020;7.772;2023-03-20T09:21:59;9.70;;;7.57;;
19664;SDS011;9980;51.020;7.772;2023-03-20T09:24:26;9.90;;;7.57;;
19664;SDS011;9980;51.020;7.772;2023-03-20T09:26:54;9.47;;;7.87;;
19664;SDS011;9980;51.020;7.772;2023-03-20T09:29:21;12.53;;;7.83;;
19664;SDS011;9980;51.020;7.772;2023-03-20T09:31:48;7.20;;;6.20;;
19664;SDS011;9980;51.020;7.772;2023-03-20T09:34:14;7.70;;;6.13;;
19664;SDS011;9980;51.020;7.772;2023-03-20T09:36:42;9.20;;;6.57;;
19664;SDS011;9980;51.020;7.772;2023-03-20T09:39:08;9.63;;;6.37;;
19664;SDS011;9980;51.020;7.772;2023-03-20T09:41:35;10.73;;;6.27;;
19664;SDS011;9980;51.020;7.772;2023-03-20T09:47:32;8.63;;;6.70;;
19664;SDS011;9980;51.020;7.772;2023-03-20T09:50:22;8.97;;;7.07;;
19664;SDS011;9980;51.020;7.772;2023-03-20T09:53:21;7.47;;;6.73;;
19664;SDS011;9980;51.020;7.772;2023-03-20T09:55:56;9.80;;;7.83;;
19664;SDS011;9980;51.020;7.772;2023-03-20T09:58:26;9.83;;;7.53;;
19664;SDS011;9980;51.020;7.772;2023-03-20T10:01:01;9.73;;;7.40;;
19664;SDS011;9980;51.020;7.772;2023-03-20T10:03:36;11.60;;;7.80;;
19664;SDS011;9980;51.020;7.772;2023-03-20T10:06:14;9.27;;;6.87;;
19664;SDS011;9980;51.020;7.772;2023-03-20T10:08:43;8.53;;;7.20;;
19664;SDS011;9980;51.020;7.772;2023-03-20T10:17:02;8.40;;;6.97;;
19664;SDS011;9980;51.020;7.772;2023-03-20T10:23:15;8.87;;;6.30;;
19664;SDS011;9980;51.020;7.772;2023-03-20T10:26:09;7.17;;;5.50;;
19664;SDS011;9980;51.020;7.772;2023-03-20T10:28:42;6.87;;;5.67;;
19664;SDS011;9980;51.020;7.772;2023-03-20T10:31:34;8.17;;;5.70;;
19664;SDS011;9980;51.020;7.772;2023-03-20T10:37:28;7.40;;;5.30;;
19664;SDS011;9980;51.020;7.772;2023-03-20T10:40:28;7.83;;;5.37;;
19664;SDS011;9980;51.020;7.772;2023-03-20T10:43:25;9.27;;;5.23;;
19664;SDS011;9980;51.020;7.772;2023-03-20T10:46:00;7.87;;;4.90;;
19664;SDS011;9980;51.020;7.772;2023-03-20T10:51:48;6.37;;;5.30;;
19664;SDS011;9980;51.020;7.772;2023-03-20T10:56:58;5.40;;;4.90;;
19664;SDS011;9980;51.020;7.772;2023-03-20T10:59:47;8.40;;;4.90;;
19664;SDS011;9980;51.020;7.772;2023-03-20T11:02:18;6.33;;;4.60;;
19664;SDS011;9980;51.020;7.772;2023-03-20T11:04:47;8.00;;;4.43;;
19664;SDS011;9980;51.020;7.772;2023-03-20T11:12:34;6.10;;;4.73;;
19664;SDS011;9980;51.020;7.772;2023-03-20T11:17:55;8.87;;;4.60;;
19664;SDS011;9980;51.020;7.772;2023-03-20T11:20:30;6.03;;;5.37;;
19664;SDS011;9980;51.020;7.772;2023-03-20T11:23:06;6.20;;;4.57;;
19664;SDS011;9980;51.020;7.772;2023-03-20T11:25:35;5.33;;;4.83;;
19664;SDS011;9980;51.020;7.772;2023-03-20T11:28:32;6.03;;;5.43;;
19664;SDS011;9980;51.020;7.772;2023-03-20T11:33:39;6.20;;;5.60;;
19664;SDS011;9980;51.020;7.772;2023-03-20T11:36:24;7.17;;;6.00;;
19664;SDS011;9980;51.020;7.772;2023-03-20T11:39:05;7.07;;;5.40;;
19664;SDS011;9980;51.020;7.772;2023-03-20T11:41:47;8.00;;;6.13;;
19664;SDS011;9980;51.020;7.772;2023-03-20T11:44:34;7.70;;;6.07;;
19664;SDS011;9980;51.020;7.772;2023-03-20T11:47:03;7.73;;;6.73;;
19664;SDS011;9980;51.020;7.772;2023-03-20T11:49:47;7.30;;;6.60;;
19664;SDS011;9980;51.020;7.772;2023-03-20T11:52:21;7.60;;;6.90;;
19664;SDS011;9980;51.020;7.772;2023-03-20T11:55:06;7.53;;;6.63;;
19664;SDS011;9980;51.020;7.772;2023-03-20T11:57:55;10.00;;;7.47;;
19664;SDS011;9980;51.020;7.772;2023-03-20T12:00:28;7.00;;;6.40;;
19664;SDS011;9980;51.020;7.772;2023-03-20T12:03:31;9.80;;;6.67;;
19664;SDS011;9980;51.020;7.772;2023-03-20T12:06:25;11.40;;;6.67;;
19664;SDS011;9980;51.020;7.772;2023-03-20T12:09:02;7.77;;;6.70;;
19664;SDS011;9980;51.020;7.772;2023-03-20T12:20:11;8.03;;;6.27;;
19664;SDS011;9980;51.020;7.772;2023-03-20T12:22:55;9.13;;;6.33;;
19664;SDS011;9980;51.020;7.772;2023-03-20T12:28:24;6.43;;;5.83;;
19664;SDS011;9980;51.020;7.772;2023-03-20T12:33:53;6.47;;;5.80;;
19664;SDS011;9980;51.020;7.772;2023-03-20T12:36:33;8.43;;;5.83;;
19664;SDS011;9980;51.020;7.772;2023-03-20T12:39:05;6.43;;;5.77;;
19664;SDS011;9980;51.020;7.772;2023-03-20T12:41:42;6.63;;;6.00;;
19664;SDS011;9980;51.020;7.772;2023-03-20T12:44:45;6.53;;;5.80;;
19664;SDS011;9980;51.020;7.772;2023-03-20T12:47:41;6.13;;;5.43;;
19664;SDS011;9980;51.020;7.772;2023-03-20T12:56:16;6.67;;;5.80;;
19664;SDS011;9980;51.020;7.772;2023-03-20T12:58:53;6.43;;;5.83;;
19664;SDS011;9980;51.020;7.772;2023-03-20T13:01:54;8.70;;;5.73;;
19664;SDS011;9980;51.020;7.772;2023-03-20T13:04:52;8.90;;;5.67;;
19664;SDS011;9980;51.020;7.772;2023-03-20T13:08:13;6.67;;;5.97;;
19664;SDS011;9980;51.020;7.772;2023-03-20T13:10:43;5.93;;;5.33;;
19664;SDS011;9980;51.020;7.772;2023-03-20T13:16:44;6.13;;;5.53;;
19664;SDS011;9980;51.020;7.772;2023-03-20T13:22:42;7.63;;;5.73;;
19664;SDS011;9980;51.020;7.772;2023-03-20T13:25:39;8.03;;;6.33;;
19664;SDS011;9980;51.020;7.772;2023-03-20T13:34:05;6.57;;;5.87;;
19664;SDS011;9980;51.020;7.772;2023-03-20T13:39:57;8.13;;;6.10;;
19664;SDS011;9980;51.020;7.772;2023-03-20T13:45:45;7.90;;;6.27;;
19664;SDS011;9980;51.020;7.772;2023-03-20T13:48:33;8.43;;;6.10;;
19664;SDS011;9980;51.020;7.772;2023-03-20T13:59:23;6.37;;;4.70;;
19664;SDS011;9980;51.020;7.772;2023-03-20T14:05:29;7.53;;;4.07;;
19664;SDS011;9980;51.020;7.772;2023-03-20T14:16:40;7.40;;;3.97;;
19664;SDS011;9980;51.020;7.772;2023-03-20T14:21:49;7.97;;;4.50;;
19664;SDS011;9980;51.020;7.772;2023-03-20T14:24:21;6.17;;;3.70;;
19664;SDS011;9980;51.020;7.772;2023-03-20T14:26:54;4.07;;;3.67;;
19664;SDS011;9980;51.020;7.772;2023-03-20T14:34:44;6.17;;;4.00;;
19664;SDS011;9980;51.020;7.772;2023-03-20T14:40:18;4.60;;;3.93;;
19664;SDS011;9980;51.020;7.772;2023-03-20T14:42:54;5.33;;;3.70;;
19664;SDS011;9980;51.020;7.772;2023-03-20T14:51:10;3.60;;;3.00;;
19664;SDS011;9980;51.020;7.772;2023-03-20T14:54:27;5.20;;;2.80;;
19664;SDS011;9980;51.020;7.772;2023-03-20T14:57:06;4.80;;;3.03;;
19664;SDS011;9980;51.020;7.772;2023-03-20T14:59:51;4.97;;;2.90;;
19664;SDS011;9980;51.020;7.772;2023-03-20T15:02:24;2.90;;;2.70;;
19664;SDS011;9980;51.020;7.772;2023-03-20T15:05:01;4.23;;;2.70;;
19664;SDS011;9980;51.020;7.772;2023-03-20T15:07:29;3.07;;;2.47;;
19664;SDS011;9980;51.020;7.772;2023-03-20T15:10:02;4.43;;;2.80;;
19664;SDS011;9980;51.020;7.772;2023-03-20T15:12:34;3.63;;;2.90;;
19664;SDS011;9980;51.020;7.772;2023-03-20T15:15:04;5.57;;;3.00;;
19664;SDS011;9980;51.020;7.772;2023-03-20T15:17:39;2.80;;;2.40;;
19664;SDS011;9980;51.020;7.772;2023-03-20T15:22:50;3.73;;;2.63;;
19664;SDS011;9980;51.020;7.772;2023-03-20T15:25:26;6.67;;;3.30;;
19664;SDS011;9980;51.020;7.772;2023-03-20T15:28:32;3.97;;;2.70;;
19664;SDS011;9980;51.020;7.772;2023-03-20T15:31:02;5.23;;;3.00;;
19664;SDS011;9980;51.020;7.772;2023-03-20T15:33:33;5.57;;;2.70;;
19664;SDS011;9980;51.020;7.772;2023-03-20T15:36:14;4.53;;;2.70;;
19664;SDS011;9980;51.020;7.772;2023-03-20T15:38:46;4.73;;;2.90;;
19664;SDS011;9980;51.020;7.772;2023-03-20T15:41:24;3.37;;;2.53;;
19664;SDS011;9980;51.020;7.772;2023-03-20T15:44:07;5.17;;;2.60;;
19664;SDS011;9980;51.020;7.772;2023-03-20T15:46:53;2.80;;;2.43;;
19664;SDS011;9980;51.020;7.772;2023-03-20T15:49:27;3.23;;;2.57;;
19664;SDS011;9980;51.020;7.772;2023-03-20T15:51:59;2.90;;;2.70;;
19664;SDS011;9980;51.020;7.772;2023-03-20T15:54:32;4.40;;;2.90;;
19664;SDS011;9980;51.020;7.772;2023-03-20T15:57:02;4.17;;;2.87;;
19664;SDS011;9980;51.020;7.772;2023-03-20T15:59:30;5.50;;;2.57;;
19664;SDS011;9980;51.020;7.772;2023-03-20T16:01:59;4.43;;;2.80;;
19664;SDS011;9980;51.020;7.772;2023-03-20T16:04:27;4.70;;;2.40;;
19664;SDS011;9980;51.020;7.772;2023-03-20T16:06:55;3.67;;;2.77;;
19664;SDS011;9980;51.020;7.772;2023-03-20T16:09:25;2.90;;;2.70;;
19664;SDS011;9980;51.020;7.772;2023-03-20T16:11:57;3.10;;;2.80;;
19664;SDS011;9980;51.020;7.772;2023-03-20T16:14:30;3.20;;;2.70;;
19664;SDS011;9980;51.020;7.772;2023-03-20T16:17:00;3.77;;;2.90;;
19664;SDS011;9980;51.020;7.772;2023-03-20T16:19:30;3.97;;;2.57;;
19664;SDS011;9980;51.020;7.772;2023-03-20T16:24:29;4.87;;;3.10;;
19664;SDS011;9980;51.020;7.772;2023-03-20T16:27:07;5.53;;;3.00;;
19664;SDS011;9980;51.020;7.772;2023-03-20T16:29:35;2.83;;;2.57;;
19664;SDS011;9980;51.020;7.772;2023-03-20T16:32:17;4.53;;;2.80;;
19664;SDS011;9980;51.020;7.772;2023-03-20T16:34:58;5.10;;;2.70;;
19664;SDS011;9980;51.020;7.772;2023-03-20T16:37:38;3.03;;;2.60;;
19664;SDS011;9980;51.020;7.772;2023-03-20T16:43:04;3.60;;;2.70;;
19664;SDS011;9980;51.020;7.772;2023-03-20T16:45:44;3.07;;;2.77;;
19664;SDS011;9980;51.020;7.772;2023-03-20T16:50:59;5.33;;;2.97;;
19664;SDS011;9980;51.020;7.772;2023-03-20T16:53:44;5.50;;;2.90;;
19664;SDS011;9980;51.020;7.772;2023-03-20T16:56:23;5.53;;;2.90;;
19664;SDS011;9980;51.020;7.772;2023-03-20T16:59:06;7.47;;;3.60;;
19664;SDS011;9980;51.020;7.772;2023-03-20T17:01:44;3.13;;;2.77;;
19664;SDS011;9980;51.020;7.772;2023-03-20T17:04:16;3.70;;;3.30;;
19664;SDS011;9980;51.020;7.772;2023-03-20T17:06:49;4.37;;;3.50;;
19664;SDS011;9980;51.020;7.772;2023-03-20T17:09:27;8.03;;;4.60;;
19664;SDS011;9980;51.020;7.772;2023-03-20T17:12:01;5.90;;;3.43;;
19664;SDS011;9980;51.020;7.772;2023-03-20T17:14:38;4.53;;;3.57;;
19664;SDS011;9980;51.020;7.772;2023-03-20T17:17:15;3.90;;;3.17;;
19664;SDS011;9980;51.020;7.772;2023-03-20T17:19:50;2.97;;;2.50;;
19664;SDS011;9980;51.020;7.772;2023-03-20T17:22:26;5.07;;;2.83;;
19664;SDS011;9980;51.020;7.772;2023-03-20T17:24:58;6.40;;;2.80;;
19664;SDS011;9980;51.020;7.772;2023-03-20T17:27:26;4.03;;;3.30;;
19664;SDS011;9980;51.020;7.772;2023-03-20T17:29:54;6.40;;;3.13;;
19664;SDS011;9980;51.020;7.772;2023-03-20T17:32:21;6.23;;;3.10;;
19664;SDS011;9980;51.020;7.772;2023-03-20T17:34:49;4.53;;;3.17;;
19664;SDS011;9980;51.020;7.772;2023-03-20T17:37:26;4.23;;;3.83;;
19664;SDS011;9980;51.020;7.772;2023-03-20T17:39:55;4.47;;;3.73;;
19664;SDS011;9980;51.020;7.772;2023-03-20T17:42:23;5.23;;;3.33;;
19664;SDS011;9980;51.020;7.772;2023-03-20T17:44:59;4.47;;;2.97;;
19664;SDS011;9980;51.020;7.772;2023-03-20T17:47:30;6.67;;;3.13;;
19664;SDS011;9980;51.020;7.772;2023-03-20T17:49:57;5.23;;;3.00;;
19664;SDS011;9980;51.020;7.772;2023-03-20T17:52:25;3.90;;;3.07;;
19664;SDS011;9980;51.020;7.772;2023-03-20T17:54:53;3.07;;;2.70;;
19664;SDS011;9980;51.020;7.772;2023-03-20T17:57:23;4.10;;;3.10;;
19664;SDS011;9980;51.020;7.772;2023-03-20T18:00:04;4.70;;;3.10;;
19664;SDS011;9980;51.020;7.772;2023-03-20T18:02:35;3.50;;;2.87;;
19664;SDS011;9980;51.020;7.772;2023-03-20T18:05:02;4.40;;;3.43;;
19664;SDS011;9980;51.020;7.772;2023-03-20T18:07:29;7.00;;;6.23;;
19664;SDS011;9980;51.020;7.772;2023-03-20T18:09:56;7.27;;;6.53;;
19664;SDS011;9980;51.020;7.772;2023-03-20T18:12:23;8.03;;;6.63;;
19664;SDS011;9980;51.020;7.772;2023-03-20T18:14:50;15.60;;;11.17;;
19664;SDS011;9980;51.020;7.772;2023-03-20T18:17:17;11.07;;;10.07;;
19664;SDS011;9980;51.020;7.772;2023-03-20T18:19:44;13.33;;;11.93;;
19664;SDS011;9980;51.020;7.772;2023-03-20T18:22:10;14.47;;;12.90;;